Time;durP1;ratioP1;P1;durP2;ratioP2;P2;SDS_P1;SDS_P2;PMS_P1;PMS_P2;Temp;Humidity;BMP_temperature;BMP_pressure;BME280_temperature;BME280_humidity;BME280_pressure;Samples;Min_cycle;Max_cycle;Signal;HPM_P1;HPM_P2
2022/01/07 00:01:36;;;;;;;;;8.00;7.00;;;;;21.19;37.30;101466.00;5068891;28;51071;-46
2022/01/07 00:04:02;;;;;;;;;9.00;6.50;;;;;21.16;37.59;101458.16;5064079;28;51301;-44
2022/01/07 00:06:27;;;;;;;;;5.50;5.25;;;;;21.13;37.60;101450.31;5066949;28;51017;-44
2022/01/07 00:08:53;;;;;;;;;5.50;4.75;;;;;21.10;37.62;101456.25;5064352;28;51740;-45
2022/01/07 00:11:18;;;;;;;;;8.00;8.00;;;;;21.08;37.50;101455.63;5076371;28;51021;-46
2022/01/07 00:13:44;;;;;;;;;6.50;6.00;;;;;21.05;37.18;101453.28;5074992;27;50977;-45
2022/01/07 00:16:11;;;;;;;;;6.00;6.00;;;;;21.02;37.59;101443.53;5067273;28;51176;-46
2022/01/07 00:18:36;;;;;;;;;6.25;6.00;;;;;21.00;37.64;101428.28;5076511;28;51113;-47
2022/01/07 00:21:02;;;;;;;;;7.00;6.50;;;;;20.99;37.36;101426.59;5076916;28;51129;-47
2022/01/07 00:23:27;;;;;;;;;6.00;6.00;;;;;20.97;37.69;101420.44;5074801;28;51178;-44
2022/01/07 00:25:53;;;;;;;;;6.25;6.25;;;;;20.93;37.57;101410.91;5077927;27;51685;-47
2022/01/07 00:28:19;;;;;;;;;5.75;5.75;;;;;20.91;37.32;101418.53;5088489;27;51845;-46
2022/01/07 00:30:45;;;;;;;;;6.25;6.25;;;;;20.89;37.42;101404.13;5072578;27;51369;-46
2022/01/07 00:33:10;;;;;;;;;6.00;6.00;;;;;20.86;37.64;101399.91;5056480;28;51119;-47
2022/01/07 00:35:36;;;;;;;;;6.25;5.25;;;;;20.85;37.49;101400.13;5058541;28;51149;-48
2022/01/07 00:38:02;;;;;;;;;6.25;6.25;;;;;20.82;37.43;101395.00;5055956;28;51134;-48
2022/01/07 00:40:27;;;;;;;;;6.25;5.25;;;;;20.79;37.32;101388.03;5056320;28;51135;-45
2022/01/07 00:42:54;;;;;;;;;4.25;4.25;;;;;20.78;37.23;101391.00;5056839;28;51126;-47
2022/01/07 00:45:22;;;;;;;;;5.00;5.00;;;;;20.77;37.59;101386.56;5071018;27;50985;-45
2022/01/07 00:47:48;;;;;;;;;5.00;5.00;;;;;20.73;37.59;101384.19;5075306;28;51024;-46
2022/01/07 00:50:16;;;;;;;;;9.75;6.00;;;;;20.71;37.64;101375.31;5072352;27;51464;-45
2022/01/07 00:52:41;;;;;;;;;4.75;4.75;;;;;20.70;37.31;101375.53;5061145;28;51042;-47
2022/01/07 00:55:08;;;;;;;;;7.75;7.75;;;;;20.68;37.46;101386.75;5065492;28;51156;-47
2022/01/07 00:57:33;;;;;;;;;7.00;6.00;;;;;20.66;37.83;101386.13;5068063;27;52050;-48
2022/01/07 00:59:59;;;;;;;;;6.00;5.00;;;;;20.65;37.28;101375.31;5063094;28;51148;-50
2022/01/07 01:02:24;;;;;;;;;6.25;5.00;;;;;20.63;37.57;101378.25;5075818;27;50983;-48
2022/01/07 01:04:49;;;;;;;;;6.50;5.00;;;;;20.63;37.59;101385.66;5066090;28;51278;-48
2022/01/07 01:07:15;;;;;;;;;6.00;5.00;;;;;20.60;37.52;101373.19;5076081;27;52230;-50
2022/01/07 01:09:42;;;;;;;;;4.00;4.00;;;;;20.59;37.48;101384.41;5061866;28;51163;-51
2022/01/07 01:12:09;;;;;;;;;4.25;4.25;;;;;20.56;37.53;101377.44;5060732;28;51489;-51
2022/01/07 01:14:35;;;;;;;;;4.00;4.00;;;;;20.55;37.39;101377.63;5065985;28;51254;-50
2022/01/07 01:17:00;;;;;;;;;6.00;4.00;;;;;20.53;37.28;101371.47;5064663;28;51675;-49
2022/01/07 01:19:27;;;;;;;;;6.25;3.75;;;;;20.52;37.48;101375.28;5068006;28;51135;-45
2022/01/07 01:21:53;;;;;;;;;6.00;6.00;;;;;20.50;37.80;101372.75;5055789;27;51018;-44
2022/01/07 01:24:18;;;;;;;;;7.00;5.00;;;;;20.48;37.51;101372.13;5056658;28;51268;-47
2022/01/07 01:26:44;;;;;;;;;5.75;3.25;;;;;20.47;37.81;101375.94;5070619;27;50946;-44
2022/01/07 01:29:09;;;;;;;;;4.25;4.25;;;;;20.45;37.71;101359.63;5075929;28;51013;-49
2022/01/07 01:31:36;;;;;;;;;5.00;3.25;;;;;20.44;37.49;101357.09;5068170;28;51060;-48
2022/01/07 01:34:02;;;;;;;;;5.75;4.00;;;;;20.43;37.55;101371.91;5056132;28;51093;-50
2022/01/07 01:36:28;;;;;;;;;3.75;3.75;;;;;20.40;37.94;101366.78;5074985;28;51009;-51
2022/01/07 01:38:53;;;;;;;;;3.75;3.75;;;;;20.39;37.61;101365.09;5075874;28;51051;-45
2022/01/07 01:41:19;;;;;;;;;4.00;4.00;;;;;20.37;37.48;101367.19;5067215;28;51114;-45
2022/01/07 01:43:45;;;;;;;;;3.00;3.00;;;;;20.35;37.62;101367.41;5074693;28;51235;-45
2022/01/07 01:46:10;;;;;;;;;3.50;3.00;;;;;20.34;37.81;101349.22;5057247;27;51119;-47
2022/01/07 01:48:36;;;;;;;;;4.75;4.75;;;;;20.33;37.91;101364.03;5055277;28;51153;-46
2022/01/07 01:51:03;;;;;;;;;5.00;4.00;;;;;20.32;37.52;101356.84;5058809;28;51081;-48
2022/01/07 01:53:30;;;;;;;;;5.50;5.50;;;;;20.31;37.79;101368.03;5056071;27;51303;-47
2022/01/07 01:55:55;;;;;;;;;4.75;3.25;;;;;20.29;37.70;101346.22;5062814;28;52578;-49
2022/01/07 01:58:21;;;;;;;;;3.50;3.50;;;;;20.28;37.59;101358.28;5075854;27;51197;-47
2022/01/07 02:00:46;;;;;;;;;3.75;3.75;;;;;20.26;37.48;101365.91;5073825;27;51534;-45
2022/01/07 02:03:11;;;;;;;;;4.50;4.00;;;;;20.25;37.87;101344.97;5075028;28;51119;-50
2022/01/07 02:05:37;;;;;;;;;4.00;3.00;;;;;20.24;37.78;101340.53;5069384;28;51386;-46
2022/01/07 02:08:02;;;;;;;;;4.25;3.25;;;;;20.24;37.68;101353.44;5056230;28;51121;-46
2022/01/07 02:10:28;;;;;;;;;3.00;3.00;;;;;20.21;37.73;101354.66;5061483;28;51239;-47
2022/01/07 02:12:54;;;;;;;;;3.00;3.00;;;;;20.21;37.54;101351.06;5075557;28;51082;-47
2022/01/07 02:15:19;;;;;;;;;3.00;3.00;;;;;20.21;37.57;101348.31;5074135;28;51165;-47
2022/01/07 02:17:47;;;;;;;;;3.75;3.75;;;;;20.18;37.84;101347.69;5075306;28;51010;-47
2022/01/07 02:20:15;;;;;;;;;3.25;3.25;;;;;20.18;37.60;101350.44;5070476;28;51094;-45
2022/01/07 02:22:40;;;;;;;;;2.75;2.00;;;;;20.15;37.96;101336.25;5062977;28;51130;-46
2022/01/07 02:25:06;;;;;;;;;3.75;3.00;;;;;20.14;37.74;101338.16;5061436;28;51050;-44
2022/01/07 02:27:37;;;;;;;;;2.75;2.50;;;;;20.14;37.74;101334.56;5074849;27;51356;-44
2022/01/07 02:30:07;;;;;;;;;5.25;2.25;;;;;20.13;37.76;101328.22;5078797;28;51330;-44
2022/01/07 02:32:33;;;;;;;;;6.25;3.50;;;;;20.12;37.88;101329.28;5078244;27;51161;-45
2022/01/07 02:34:58;;;;;;;;;3.00;3.00;;;;;20.12;37.75;101320.19;5070523;28;51129;-44
2022/01/07 02:37:23;;;;;;;;;5.00;3.75;;;;;20.12;37.98;101320.19;5077367;28;50963;-46
2022/01/07 02:39:49;;;;;;;;;5.50;3.00;;;;;20.10;37.89;101327.78;5069094;28;51359;-45
2022/01/07 02:42:15;;;;;;;;;2.00;2.00;;;;;20.09;37.78;101324.19;5058364;28;50973;-45
2022/01/07 02:44:41;;;;;;;;;5.00;4.00;;;;;20.08;37.86;101321.63;5061637;28;51730;-46
2022/01/07 02:47:06;;;;;;;;;3.25;2.00;;;;;20.06;37.83;101305.34;5078197;28;51103;-47
2022/01/07 02:49:32;;;;;;;;;4.00;4.00;;;;;20.06;37.89;101299.84;5078087;27;51098;-45
2022/01/07 02:51:57;;;;;;;;;2.75;2.00;;;;;20.06;37.71;101304.50;5077483;27;51128;-45
2022/01/07 02:54:22;;;;;;;;;3.50;3.50;;;;;20.05;37.79;101303.66;5077091;28;51020;-48
2022/01/07 02:56:48;;;;;;;;;2.25;2.25;;;;;20.04;37.96;101301.97;5078202;28;51112;-44
2022/01/07 02:59:13;;;;;;;;;3.75;3.00;;;;;20.03;37.83;101305.78;5078204;28;51176;-45
2022/01/07 03:01:39;;;;;;;;;3.00;3.00;;;;;20.03;37.93;101305.78;5075846;28;51144;-45
2022/01/07 03:04:06;;;;;;;;;3.25;2.50;;;;;20.01;38.32;101313.41;5064746;27;50921;-45
2022/01/07 03:06:32;;;;;;;;;2.50;2.00;;;;;20.02;38.07;101309.59;5074584;27;50988;-48
2022/01/07 03:08:57;;;;;;;;;2.75;2.75;;;;;20.00;38.15;101306.16;5077887;28;51003;-48
2022/01/07 03:11:23;;;;;;;;;2.00;2.00;;;;;19.99;38.11;101304.47;5061986;27;50874;-46
2022/01/07 03:13:49;;;;;;;;;2.00;2.00;;;;;19.99;38.33;101301.72;5057651;28;51660;-48
2022/01/07 03:16:15;;;;;;;;;3.00;3.00;;;;;19.99;38.12;101295.38;5061665;28;51160;-50
2022/01/07 03:18:42;;;;;;;;;3.75;3.75;;;;;19.98;37.84;101308.28;5076945;27;51211;-49
2022/01/07 03:21:08;;;;;;;;;3.25;3.00;;;;;19.98;38.18;101296.44;5057824;28;51125;-48
2022/01/07 03:23:35;;;;;;;;;3.75;2.75;;;;;19.97;38.43;101300.25;5057239;28;51898;-46
2022/01/07 03:26:01;;;;;;;;;3.00;2.00;;;;;19.95;38.10;101302.38;5073259;27;51436;-45
2022/01/07 03:28:26;;;;;;;;;2.00;2.00;;;;;19.94;38.24;101298.78;5082494;27;51217;-49
2022/01/07 03:30:52;;;;;;;;;2.00;2.00;;;;;19.94;38.18;101298.78;5067040;28;51046;-46
2022/01/07 03:33:19;;;;;;;;;3.50;1.50;;;;;19.94;38.34;101289.69;5066558;28;51906;-50
2022/01/07 03:35:45;;;;;;;;;1.00;1.00;;;;;19.92;38.03;101287.13;5062981;28;51151;-50
2022/01/07 03:38:11;;;;;;;;;3.50;3.50;;;;;19.91;38.28;101277.19;5077216;28;51198;-49
2022/01/07 03:40:37;;;;;;;;;2.75;2.75;;;;;19.89;38.07;101265.53;5074570;28;51108;-47
2022/01/07 03:43:03;;;;;;;;;4.00;2.50;;;;;19.89;38.13;101280.13;5077359;28;51061;-46
2022/01/07 03:45:28;;;;;;;;;1.00;1.00;;;;;19.89;38.25;101276.53;5076571;28;51116;-47
2022/01/07 03:47:54;;;;;;;;;2.00;2.00;;;;;19.88;38.31;101283.09;5077255;28;50993;-48
2022/01/07 03:50:23;;;;;;;;;2.75;2.75;;;;;19.88;38.22;101274.84;5074141;28;51288;-50
2022/01/07 03:52:49;;;;;;;;;3.00;3.00;;;;;19.87;38.49;101278.66;5070063;28;52664;-50
2022/01/07 03:55:18;;;;;;;;;2.00;2.00;;;;;19.85;38.39;101262.38;5061279;28;51389;-49
2022/01/07 03:57:44;;;;;;;;;2.00;2.00;;;;;19.86;37.99;101276.97;5077512;28;51211;-48
2022/01/07 04:00:14;;;;;;;;;3.00;2.25;;;;;19.84;38.13;101265.34;5072423;27;51073;-49
2022/01/07 04:02:41;;;;;;;;;3.00;3.00;;;;;19.83;38.41;101249.91;5057109;28;52308;-49
2022/01/07 04:05:07;;;;;;;;;1.00;1.00;;;;;19.82;38.09;101264.69;5057566;28;51058;-47
2022/01/07 04:07:33;;;;;;;;;3.00;2.00;;;;;19.82;38.38;101259.19;5056598;28;51082;-49
2022/01/07 04:09:59;;;;;;;;;2.00;2.00;;;;;19.81;38.22;101261.09;5062098;28;51000;-49
2022/01/07 04:12:26;;;;;;;;;1.00;1.00;;;;;19.80;38.41;101244.78;5065887;28;51043;-49
2022/01/07 04:15:02;;;;;;;;;1.50;1.50;;;;;19.79;38.25;101243.94;5064613;28;51356;-46
2022/01/07 04:17:27;;;;;;;;;3.50;2.00;;;;;19.79;38.20;101237.59;5056728;28;51232;-45
2022/01/07 04:19:52;;;;;;;;;1.00;1.00;;;;;19.77;38.09;101237.81;5057607;28;51271;-46
2022/01/07 04:22:18;;;;;;;;;1.75;1.75;;;;;19.77;38.16;101245.22;5066483;27;50936;-49
2022/01/07 04:24:43;;;;;;;;;2.00;2.00;;;;;19.76;38.31;101246.28;5067680;28;51111;-46
2022/01/07 04:27:08;;;;;;;;;2.00;2.00;;;;;19.76;38.08;101251.78;5085783;27;51048;-50
2022/01/07 04:29:34;;;;;;;;;2.00;1.75;;;;;19.74;38.21;101256.63;5097443;27;51079;-48
2022/01/07 04:32:01;;;;;;;;;2.00;2.00;;;;;19.74;38.27;101245.63;5097041;27;51085;-47
2022/01/07 04:34:26;;;;;;;;;2.25;2.00;;;;;19.72;38.04;101248.59;5087313;27;51119;-51
2022/01/07 04:36:52;;;;;;;;;1.50;1.50;;;;;19.72;38.11;101239.50;5074170;28;51179;-45
2022/01/07 04:39:17;;;;;;;;;3.00;2.75;;;;;19.72;38.14;101247.75;5063086;28;51137;-50
2022/01/07 04:41:42;;;;;;;;;2.00;1.25;;;;;19.71;38.18;101246.91;5071135;27;51141;-49
2022/01/07 04:44:08;;;;;;;;;2.00;2.00;;;;;19.71;38.28;101241.41;5070085;28;51267;-48
2022/01/07 04:46:33;;;;;;;;;1.25;1.00;;;;;19.70;38.33;101244.38;5070763;28;51176;-50
2022/01/07 04:48:58;;;;;;;;;2.00;2.00;;;;;19.69;38.43;101249.00;5056960;28;51299;-47
2022/01/07 04:51:24;;;;;;;;;1.00;1.00;;;;;19.69;38.01;101259.13;5070500;28;51216;-46
2022/01/07 04:53:49;;;;;;;;;1.75;1.75;;;;;19.68;38.04;101262.94;5076254;28;51163;-48
2022/01/07 04:56:14;;;;;;;;;1.00;1.00;;;;;19.67;38.51;101259.34;5061417;28;51013;-48
2022/01/07 04:58:40;;;;;;;;;0.75;0.50;;;;;19.66;38.39;101256.81;5070794;28;51263;-46
2022/01/07 05:01:05;;;;;;;;;4.75;2.25;;;;;19.65;38.31;101252.38;5057761;28;51035;-51
2022/01/07 05:03:30;;;;;;;;;1.00;1.00;;;;;19.65;38.38;101253.22;5075411;28;50997;-45
2022/01/07 05:06:11;;;;;;;;;2.75;1.00;;;;;19.64;38.40;101251.53;5075768;28;51070;-49
2022/01/07 05:08:36;;;;;;;;;1.00;1.00;;;;;19.63;38.30;101243.50;5075593;27;51558;-47
2022/01/07 05:11:01;;;;;;;;;2.50;2.00;;;;;19.63;38.40;101249.00;5075731;28;51011;-46
2022/01/07 05:13:27;;;;;;;;;0.75;0.75;;;;;19.62;38.35;101237.16;5075186;28;51496;-47
2022/01/07 05:15:52;;;;;;;;;3.00;2.50;;;;;19.62;38.02;101241.81;5064336;28;51412;-46
2022/01/07 05:18:18;;;;;;;;;1.00;1.00;;;;;19.61;38.49;101232.72;5055997;28;51308;-48
2022/01/07 05:20:43;;;;;;;;;2.75;1.00;;;;;19.60;38.56;101234.63;5061144;28;51822;-46
2022/01/07 05:23:09;;;;;;;;;1.00;1.00;;;;;19.59;38.51;101227.44;5057371;28;51231;-48
2022/01/07 05:25:34;;;;;;;;;1.00;0.75;;;;;19.58;38.62;101222.97;5063581;28;51048;-47
2022/01/07 05:28:00;;;;;;;;;2.50;1.50;;;;;19.58;38.52;101239.44;5094411;27;51235;-49
2022/01/07 05:30:25;;;;;;;;;2.25;2.25;;;;;19.57;38.12;101240.50;5096221;27;51618;-46
2022/01/07 05:32:50;;;;;;;;;1.00;1.00;;;;;19.56;38.26;101237.97;5079898;27;51013;-48
2022/01/07 05:35:16;;;;;;;;;1.50;1.50;;;;;19.56;38.40;101240.72;5058558;28;51197;-45
2022/01/07 05:37:41;;;;;;;;;2.00;2.00;;;;;19.55;38.44;101242.63;5072359;28;50970;-44
2022/01/07 05:40:07;;;;;;;;;2.00;2.00;;;;;19.54;38.24;101240.91;5075288;28;51628;-45
2022/01/07 05:42:33;;;;;;;;;2.00;1.25;;;;;19.53;38.27;101233.72;5074830;28;51320;-47
2022/01/07 05:44:58;;;;;;;;;1.00;1.00;;;;;19.52;38.37;101218.28;5068223;28;51201;-45
2022/01/07 05:47:24;;;;;;;;;1.75;1.50;;;;;19.52;38.55;101221.03;5063261;28;51469;-49
2022/01/07 05:49:49;;;;;;;;;1.75;1.75;;;;;19.52;38.54;101226.53;5060666;28;51689;-46
2022/01/07 05:52:15;;;;;;;;;1.00;1.00;;;;;19.50;38.37;101223.13;5070454;28;51241;-47
2022/01/07 05:54:40;;;;;;;;;1.00;1.00;;;;;19.50;38.41;101222.28;5072758;28;51079;-46
2022/01/07 05:57:06;;;;;;;;;2.00;2.00;;;;;19.49;38.13;101228.84;5055765;28;51002;-47
2022/01/07 05:59:32;;;;;;;;;1.75;1.75;;;;;19.49;38.39;101221.44;5056340;28;52189;-45
2022/01/07 06:01:57;;;;;;;;;0.50;0.50;;;;;19.47;38.55;101237.28;5070208;28;51091;-45
2022/01/07 06:04:22;;;;;;;;;1.25;1.00;;;;;19.47;38.32;101229.03;5075116;28;51177;-46
2022/01/07 06:06:48;;;;;;;;;0.00;0.00;;;;;19.46;38.40;101235.56;5059161;28;51328;-45
2022/01/07 06:09:13;;;;;;;;;1.25;1.25;;;;;19.45;38.47;101231.13;5071847;28;51187;-47
2022/01/07 06:11:38;;;;;;;;;2.00;2.00;;;;;19.44;38.39;101243.19;5077752;27;51122;-47
2022/01/07 06:14:04;;;;;;;;;2.25;2.25;;;;;19.44;37.68;101256.06;5075492;28;51144;-45
2022/01/07 06:16:29;;;;;;;;;3.75;3.00;;;;;19.40;37.18;101236.41;5079026;28;51015;-47
2022/01/07 06:18:57;;;;;;;;;4.75;3.00;;;;;19.36;36.61;101240.59;5067375;27;51423;-48
2022/01/07 06:21:22;;;;;;;;;3.00;3.00;;;;;19.32;36.33;101242.09;5073768;28;51461;-44
2022/01/07 06:23:47;;;;;;;;;5.00;4.00;;;;;19.24;36.35;101245.00;5078587;28;50977;-48
2022/01/07 06:26:13;;;;;;;;;4.50;3.25;;;;;19.17;36.20;101249.59;5076228;27;51063;-49
2022/01/07 06:28:38;;;;;;;;;4.00;4.00;;;;;19.12;35.92;101252.97;5088410;27;52228;-47
2022/01/07 06:31:04;;;;;;;;;4.00;4.00;;;;;19.06;35.85;101261.16;5059322;28;51331;-45
2022/01/07 06:33:29;;;;;;;;;5.50;4.00;;;;;18.99;35.75;101256.50;5062450;28;51380;-45
2022/01/07 06:35:54;;;;;;;;;3.50;2.75;;;;;18.94;35.97;101256.25;5064675;28;51210;-46
2022/01/07 06:38:20;;;;;;;;;5.25;2.25;;;;;18.85;36.07;101240.97;5070844;28;51044;-45
2022/01/07 06:40:45;;;;;;;;;3.75;3.00;;;;;18.79;36.34;101233.56;5064096;28;51039;-45
2022/01/07 06:43:10;;;;;;;;;3.25;3.25;;;;;18.79;36.57;101232.72;5060542;28;51101;-47
2022/01/07 06:45:36;;;;;;;;;2.50;2.50;;;;;18.84;36.83;101235.69;5069232;27;51365;-50
2022/01/07 06:48:01;;;;;;;;;5.75;2.25;;;;;18.91;37.36;101231.09;5061986;28;51588;-50
2022/01/07 06:50:27;;;;;;;;;3.00;2.00;;;;;18.99;37.32;101237.28;5063659;28;51119;-48
2022/01/07 06:52:52;;;;;;;;;2.25;2.25;;;;;19.08;37.51;101224.25;5065031;28;51206;-48
2022/01/07 06:55:18;;;;;;;;;1.00;1.00;;;;;19.15;37.72;101230.59;5065007;28;51312;-45
2022/01/07 06:57:43;;;;;;;;;3.25;2.00;;;;;19.24;37.80;101229.38;5066489;28;51150;-46
2022/01/07 07:00:09;;;;;;;;;2.25;2.25;;;;;19.32;38.03;101229.19;5062395;28;51173;-46
2022/01/07 07:02:34;;;;;;;;;3.50;2.00;;;;;19.40;38.05;101230.94;5064536;28;52391;-46
2022/01/07 07:05:00;;;;;;;;;1.00;1.00;;;;;19.49;38.21;101231.59;5065901;28;51283;-49
2022/01/07 07:07:25;;;;;;;;;1.00;1.00;;;;;19.57;38.75;101248.75;5067688;27;52242;-48
2022/01/07 07:09:50;;;;;;;;;2.75;1.25;;;;;19.64;38.62;101237.78;5059097;28;53574;-45
2022/01/07 07:12:16;;;;;;;;;2.00;2.00;;;;;19.72;38.78;101248.59;5061032;28;51080;-45
2022/01/07 07:14:42;;;;;;;;;1.00;1.00;;;;;19.79;38.84;101241.19;5065323;28;51152;-48
2022/01/07 07:17:07;;;;;;;;;1.00;1.00;;;;;19.88;38.76;101247.34;5068591;27;51041;-46
2022/01/07 07:19:33;;;;;;;;;0.25;0.25;;;;;19.94;38.66;101246.53;5066758;28;51080;-47
2022/01/07 07:21:58;;;;;;;;;1.25;1.25;;;;;20.01;38.65;101250.16;5064677;28;51112;-45
2022/01/07 07:24:24;;;;;;;;;1.00;1.00;;;;;20.07;38.91;101245.69;5062055;27;51123;-47
2022/01/07 07:26:49;;;;;;;;;0.00;0.00;;;;;20.14;38.79;101252.91;5065718;27;51213;-48
2022/01/07 07:29:15;;;;;;;;;1.00;1.00;;;;;20.21;39.05;101258.38;5065951;28;51103;-46
2022/01/07 07:31:44;;;;;;;;;3.50;0.75;;;;;20.28;38.87;101253.75;5063602;28;51212;-47
2022/01/07 07:36:41;;;;;;;;;2.50;1.50;;;;;20.38;38.98;101253.31;5061775;28;51218;-52
2022/01/07 07:39:09;;;;;;;;;1.75;1.75;;;;;20.39;39.04;101252.25;5059030;28;51168;-47
2022/01/07 07:41:37;;;;;;;;;4.25;1.00;;;;;20.36;39.36;101271.97;5060191;27;51192;-47
2022/01/07 07:44:04;;;;;;;;;2.00;1.75;;;;;20.33;39.70;101267.72;5066841;27;51138;-46
2022/01/07 07:46:31;;;;;;;;;1.00;1.00;;;;;20.32;39.12;101278.91;5059956;27;51231;-50
2022/01/07 07:49:00;;;;;;;;;4.50;1.75;;;;;20.36;39.11;101282.97;5066075;28;51362;-49
2022/01/07 07:51:25;;;;;;;;;2.25;1.50;;;;;20.41;39.10;101280.41;5061424;28;51347;-48
2022/01/07 07:53:50;;;;;;;;;2.75;1.75;;;;;20.47;39.40;101279.63;5059352;28;51062;-49
2022/01/07 07:56:17;;;;;;;;;1.00;1.00;;;;;20.55;39.42;101293.16;5060843;28;51851;-49
2022/01/07 07:58:43;;;;;;;;;4.00;2.00;;;;;20.62;38.97;101294.00;5061515;28;51413;-47
2022/01/07 08:01:10;;;;;;;;;3.00;3.00;;;;;20.67;38.71;101291.47;5057300;28;51286;-49
2022/01/07 08:03:35;;;;;;;;;2.00;2.00;;;;;20.70;38.63;101287.44;5077099;27;51121;-47
2022/01/07 08:06:01;;;;;;;;;3.00;1.75;;;;;20.65;38.88;101288.09;5066450;28;51358;-49
2022/01/07 08:08:27;;;;;;;;;3.75;2.00;;;;;20.63;39.00;101289.31;5068695;28;51235;-49
2022/01/07 08:10:56;;;;;;;;;3.00;2.00;;;;;20.59;38.94;101288.91;5061317;28;52046;-47
2022/01/07 08:13:28;;;;;;;;;2.00;2.00;;;;;20.55;39.12;101290.41;5063230;27;51363;-48
2022/01/07 08:15:58;;;;;;;;;3.25;3.25;;;;;20.51;39.39;101274.53;5061906;28;51758;-49
2022/01/07 08:18:31;;;;;;;;;3.75;2.50;;;;;20.46;39.31;101277.91;5070379;27;50949;-47
2022/01/07 08:21:00;;;;;;;;;1.25;1.00;;;;;20.41;39.51;101288.66;5066679;28;51189;-51
2022/01/07 08:23:25;;;;;;;;;3.25;2.25;;;;;20.37;39.64;101279.16;5065088;28;51563;-48
2022/01/07 08:25:51;;;;;;;;;1.75;1.75;;;;;20.34;39.39;101288.69;5056896;27;51310;-49
2022/01/07 08:28:18;;;;;;;;;1.00;1.00;;;;;20.30;39.27;101284.63;5067144;27;51156;-50
2022/01/07 08:36:14;;;;;;;;;2.75;1.00;;;;;20.22;39.83;101278.50;5060629;28;51477;-48
2022/01/07 08:38:40;;;;;;;;;1.25;0.75;;;;;20.18;39.69;101278.06;5063296;28;51124;-51
2022/01/07 08:41:06;;;;;;;;;1.00;1.00;;;;;20.13;40.21;101284.22;5063475;28;51072;-48
2022/01/07 08:43:31;;;;;;;;;2.75;1.25;;;;;20.12;39.64;101284.44;5062456;28;50981;-48
2022/01/07 08:45:57;;;;;;;;;3.00;3.00;;;;;20.10;39.79;101275.50;5058255;28;51273;-47
2022/01/07 08:48:22;;;;;;;;;2.00;1.00;;;;;20.08;39.92;101269.38;5063120;28;51030;-47
2022/01/07 08:50:47;;;;;;;;;1.75;1.00;;;;;20.04;40.17;101268.97;5057656;28;51313;-49
2022/01/07 08:53:13;;;;;;;;;3.00;2.00;;;;;20.01;39.93;101271.25;5070948;28;51205;-47
2022/01/07 08:55:39;;;;;;;;;3.00;0.25;;;;;19.97;40.00;101267.25;5065110;28;51975;-50
2022/01/07 08:58:05;;;;;;;;;1.75;1.00;;;;;19.95;40.19;101253.72;5062968;28;51132;-45
2022/01/07 09:00:32;;;;;;;;;1.00;1.00;;;;;19.95;39.86;101226.22;5062589;28;51116;-49
2022/01/07 09:02:58;;;;;;;;;0.50;0.50;;;;;19.93;40.05;101222.00;5064817;28;51228;-46
2022/01/07 09:05:23;;;;;;;;;1.75;1.00;;;;;19.90;40.29;101234.25;5056342;28;51109;-53
2022/01/07 09:07:49;;;;;;;;;1.00;1.00;;;;;19.86;40.54;101197.22;5069616;28;51128;-47
2022/01/07 09:10:14;;;;;;;;;0.25;0.25;;;;;19.83;40.20;101200.41;5061119;28;51301;-50
2022/01/07 09:12:40;;;;;;;;;1.00;1.00;;;;;19.82;40.35;101224.31;5062217;28;51186;-50
2022/01/07 09:15:06;;;;;;;;;1.50;1.00;;;;;19.81;40.11;101230.03;5065547;28;51996;-50
2022/01/07 09:17:32;;;;;;;;;1.00;1.00;;;;;19.80;40.64;101239.28;5063977;28;50991;-45
2022/01/07 09:19:58;;;;;;;;;3.50;1.25;;;;;19.79;40.56;101256.84;5070388;27;51148;-48
2022/01/07 09:22:24;;;;;;;;;1.00;1.00;;;;;19.77;40.51;101264.47;5064655;28;51480;-51
2022/01/07 09:24:49;;;;;;;;;0.00;0.00;;;;;19.75;40.33;101258.31;5062681;28;51778;-50
2022/01/07 09:27:14;;;;;;;;;2.00;0.75;;;;;19.74;40.49;101264.88;5073765;27;51208;-48
2022/01/07 09:29:40;;;;;;;;;0.75;0.75;;;;;19.72;40.28;101267.84;5067202;28;51917;-53
2022/01/07 09:32:06;;;;;;;;;0.00;0.00;;;;;19.72;40.58;101267.84;5062555;28;51098;-49
2022/01/07 09:34:32;;;;;;;;;0.00;0.00;;;;;19.71;40.29;101268.91;5069347;28;52230;-50
2022/01/07 09:36:58;;;;;;;;;1.25;1.25;;;;;19.70;40.42;101266.34;5066908;27;51255;-51
2022/01/07 09:39:23;;;;;;;;;0.00;0.00;;;;;19.69;40.76;101270.97;5064508;28;51838;-50
2022/01/07 09:41:48;;;;;;;;;2.00;0.50;;;;;19.68;40.80;101268.44;5066408;28;51078;-47
2022/01/07 09:44:14;;;;;;;;;1.50;1.00;;;;;19.65;40.33;101268.88;5068276;28;51869;-50
2022/01/07 09:46:41;;;;;;;;;0.75;0.75;;;;;19.64;40.72;101272.66;5069634;28;51189;-50
2022/01/07 09:49:07;;;;;;;;;0.00;0.00;;;;;19.64;40.38;101278.16;5074361;28;51211;-52
2022/01/07 09:51:36;;;;;;;;;0.50;0.50;;;;;19.62;40.59;101267.38;5069076;28;50988;-46
2022/01/07 09:54:05;;;;;;;;;1.00;0.00;;;;;19.62;40.31;101272.03;5065583;28;52142;-53
2022/01/07 09:56:30;;;;;;;;;1.00;1.00;;;;;19.62;40.54;101266.53;5065880;28;51287;-49
2022/01/07 09:58:56;;;;;;;;;0.00;0.00;;;;;19.60;40.81;101261.25;5061187;28;51260;-50
2022/01/07 10:01:23;;;;;;;;;2.25;1.00;;;;;19.58;40.73;101252.34;5067465;28;51014;-46
2022/01/07 10:03:48;;;;;;;;;0.25;0.25;;;;;19.58;40.43;101260.59;5062874;28;51689;-46
2022/01/07 10:06:16;;;;;;;;;0.00;0.00;;;;;19.57;40.63;101259.75;5069609;28;51006;-49
2022/01/07 10:08:42;;;;;;;;;0.00;0.00;;;;;19.56;40.36;101254.47;5066214;28;51192;-50
2022/01/07 10:11:18;;;;;;;;;1.25;1.25;;;;;19.57;40.63;101259.75;5062674;28;51220;-48
2022/01/07 10:14:10;;;;;;;;;0.50;0.50;;;;;19.57;40.42;101250.66;5069748;28;52438;-51
2022/01/07 10:16:56;;;;;;;;;2.00;0.00;;;;;19.57;40.25;101246.00;5065738;28;51062;-46
2022/01/07 10:19:32;;;;;;;;;0.75;0.75;;;;;19.56;40.27;101255.31;5059344;28;51179;-48
2022/01/07 10:22:07;;;;;;;;;1.00;1.00;;;;;19.56;40.46;101255.31;5069087;28;51452;-46
2022/01/07 10:24:58;;;;;;;;;1.75;1.00;;;;;19.56;40.92;101257.19;5070299;28;51947;-50
2022/01/07 10:27:27;;;;;;;;;1.00;1.00;;;;;19.54;40.74;101246.38;5065105;27;51103;-49
2022/01/07 10:29:52;;;;;;;;;1.00;1.00;;;;;19.53;41.26;101241.09;5069144;28;51211;-46
2022/01/07 10:32:22;;;;;;;;;2.00;2.00;;;;;19.52;40.28;101243.00;5068836;28;51134;-49
2022/01/07 10:35:21;;;;;;;;;1.00;1.00;;;;;19.53;40.78;101239.19;5065214;28;51297;-48
2022/01/07 10:37:54;;;;;;;;;0.25;0.25;;;;;19.54;40.30;101235.41;5055518;28;51151;-50
2022/01/07 10:40:19;;;;;;;;;1.50;1.50;;;;;19.56;40.35;101232.47;5070741;28;51604;-49
2022/01/07 10:42:45;;;;;;;;;4.25;2.00;;;;;19.57;40.62;101228.66;5066196;28;51462;-45
2022/01/07 10:45:10;;;;;;;;;1.75;0.75;;;;;19.57;40.86;101228.66;5075182;27;51110;-48
2022/01/07 10:47:35;;;;;;;;;1.25;1.00;;;;;19.54;40.86;101224.41;5058060;28;51125;-48
2022/01/07 10:50:20;;;;;;;;;2.50;2.50;;;;;19.55;40.37;101228.88;5068282;28;51278;-49
2022/01/07 10:52:46;;;;;;;;;1.00;1.00;;;;;19.56;40.51;101219.56;5065878;28;51345;-48
2022/01/07 10:55:18;;;;;;;;;3.50;3.00;;;;;19.58;40.18;101222.97;5060543;28;51750;-47
2022/01/07 10:57:47;;;;;;;;;5.25;3.25;;;;;19.60;40.07;101222.78;5070309;28;51264;-46
2022/01/07 11:00:18;;;;;;;;;3.00;2.00;;;;;19.60;40.36;101223.63;5070166;28;51226;-49
2022/01/07 11:02:44;;;;;;;;;5.25;2.25;;;;;19.60;40.69;101239.28;5059702;28;51363;-50
2022/01/07 11:05:10;;;;;;;;;5.25;3.25;;;;;19.59;40.62;101224.69;5062796;28;52883;-48
2022/01/07 11:07:36;;;;;;;;;4.25;3.00;;;;;19.58;40.92;101231.22;5062625;28;51163;-48
2022/01/07 11:10:03;;;;;;;;;3.75;3.50;;;;;19.57;40.65;101226.75;5060576;27;51097;-48
2022/01/07 11:12:29;;;;;;;;;4.75;3.50;;;;;19.58;40.27;101222.13;5062935;28;51168;-50
2022/01/07 11:14:55;;;;;;;;;5.00;4.00;;;;;19.57;40.43;101223.19;5061372;28;51882;-49
2022/01/07 11:17:23;;;;;;;;;5.50;4.00;;;;;19.58;40.07;101225.72;5066875;28;51273;-46
2022/01/07 11:19:52;;;;;;;;;5.50;4.00;;;;;19.58;40.58;101222.97;5060419;28;51118;-48
2022/01/07 11:22:19;;;;;;;;;4.50;4.50;;;;;19.56;41.03;101222.31;5065419;28;51882;-49
2022/01/07 11:24:55;;;;;;;;;3.25;2.75;;;;;19.55;41.21;101209.66;5068816;28;51141;-49
2022/01/07 11:27:26;;;;;;;;;5.25;4.00;;;;;19.55;40.53;101212.41;5065439;27;51049;-47
2022/01/07 11:30:04;;;;;;;;;3.00;3.00;;;;;19.56;40.51;101205.84;5058745;28;51451;-49